Tamassee, South Carolina
Current Conditions -  °F | °C
As of 2:54 AM on Wednesday 26 Nov 2014 (Local Time) from KCEU Reporting Station
Light Rain Light Rain  
Wind Chill: 49°   Ceiling: 6500
Heat Index: 49°   Visibility: 9mi
Dew Point: 45°   Wind: 0mph
Humidity: 86%   Direction: NA
Pressure: 29.97"   Gusts: NA
Location:  34.88°N, 83.02°W
Report Text: KCEU 260754Z AUTO 00000KT 9SM -RA OVC065 09/07 A2997 RMK AO2 SLP143 P0007 T00940072
Loading
Personal Weather Stations






























Interactive Weather Map New forecast layout! Learn more

10-Day Weather Forecast

Advertisements
Track Severe Weather on mobile